.
WxDataArchive / Data Records for 2008-02-06
2008-02-05 February 2008 2008-02-07

Data Records for Wednesday, 06 February 2008

Time	Temp	Chill	HIndex	Humid	Dewpt	 Wind 	HiWind	WindDir	Rain 	Barom 
-----	----	-----	------	-----	-----	------	------	-------	-----	----- 
00:00	34.1	26.8	34.1	96	33.1	9	16	112	0.00	29.578 
00:05	34.1	27.4	34.1	96	33.1	8	19	90	0.01	29.578 
00:10	34.1	28.0	34.1	96	33.1	7	15	112	0.01	29.578 
00:15	34.1	26.3	34.1	96	33.1	10	18	112	0.02	29.576 
00:20	34.1	27.4	34.1	96	33.1	8	15	90	0.01	29.572 
00:25	34.0	27.9	34.0	96	33.0	7	17	112	0.01	29.561 
00:30	34.0	28.6	34.0	96	33.0	6	14	112	0.01	29.547 
00:35	34.0	28.6	34.0	96	33.0	6	14	112	0.01	29.547 
00:40	34.0	28.6	34.0	96	33.0	6	17	112	0.01	29.547 
00:45	34.0	27.9	34.0	96	33.0	7	15	112	0.00	29.533 
00:50	33.8	27.0	33.8	96	32.8	8	20	90	0.01	29.535 
00:55	33.8	27.7	33.8	96	32.8	7	17	112	0.01	29.539 
01:00	33.8	33.8	33.8	96	32.8	2	10	270	0.00	29.560 
01:05	33.8	33.8	33.8	96	32.8	1	3	270	0.01	29.572 
01:10	33.8	33.8	33.8	96	32.8	1	4	292	0.00	29.579 
01:15	33.7	33.7	33.7	96	32.7	3	11	90	0.00	29.573 
01:20	33.7	33.7	33.7	96	32.7	3	6	68	0.01	29.571 
01:25	33.7	30.0	33.7	96	32.7	4	7	22	0.01	29.573 
01:30	33.7	33.7	33.7	96	32.7	2	7	45	0.01	29.579 
01:35	33.7	33.7	33.7	96	32.7	1	4	90	0.00	29.588 
01:40	33.7	33.7	33.7	96	32.7	2	5	112	0.01	29.586 
01:45	33.7	33.7	33.7	96	32.7	1	5	45	0.00	29.595 
01:50	33.7	33.7	33.7	96	32.7	1	4	112	0.01	29.596 
01:55	33.7	33.7	33.7	96	32.7	1	4	112	0.00	29.598 
02:00	33.8	33.8	33.8	96	32.8	1	5	112	0.00	29.598 
02:05	33.8	33.8	33.8	96	32.8	1	3	112	0.00	29.596 
02:10	33.8	33.8	33.8	96	32.8	3	6	112	0.00	29.583 
02:15	33.7	30.0	33.7	96	32.7	4	9	112	0.00	29.574 
02:20	33.5	28.8	33.5	96	32.5	5	11	112	0.00	29.542 
02:25	33.5	28.0	33.5	96	32.5	6	11	112	0.00	29.529 
02:30	33.4	27.9	33.4	96	32.4	6	14	112	0.01	29.531 
02:35	33.2	28.5	33.2	96	32.2	5	12	112	0.00	29.540 
02:40	33.1	26.2	33.1	96	32.1	8	15	112	0.00	29.516 
02:45	33.1	26.2	33.1	96	32.1	8	16	112	0.00	29.484 
02:50	33.1	25.6	33.1	96	32.1	9	16	90	0.00	29.483 
02:55	33.1	28.4	33.1	96	32.1	5	13	112	0.00	29.500 
03:00	33.1	28.4	33.1	96	32.1	5	12	112	0.00	29.491 
03:05	33.1	27.5	33.1	96	32.1	6	14	112	0.00	29.486 
03:10	33.2	29.5	33.2	96	32.2	4	14	112	0.00	29.492 
03:15	33.2	28.5	33.2	96	32.2	5	11	90	0.00	29.501 
03:20	33.4	33.4	33.4	96	32.4	3	11	90	0.00	29.512 
03:25	33.5	33.5	33.5	96	32.5	3	9	112	0.00	29.532 
03:30	33.5	33.5	33.5	96	32.5	2	4	45	0.00	29.543 
03:35	33.7	33.7	33.7	95	32.4	2	7	112	0.00	29.531 
03:40	33.7	33.7	33.7	95	32.4	3	7	112	0.00	29.534 
03:45	33.8	33.8	33.8	96	32.8	1	4	112	0.00	29.553 
03:50	33.8	33.8	33.8	95	32.5	1	4	112	0.00	29.558 
03:55	33.8	33.8	33.8	95	32.5	0	2	112	0.00	29.558 
04:00	33.8	33.8	33.8	95	32.5	0	1	112	0.00	29.568 
04:05	33.8	33.8	33.8	95	32.5	0	1	112	0.00	29.581 
04:10	33.8	33.8	33.8	95	32.5	0	2	112	0.00	29.587 
04:15	33.8	33.8	33.8	95	32.5	0	1	112	0.00	29.590 
04:20	33.8	33.8	33.8	96	32.8	0	3	0	0.00	29.589 
04:25	33.8	33.8	33.8	95	32.5	0	2	0	0.00	29.597 
04:30	33.8	33.8	33.8	96	32.8	0	3	0	0.00	29.581 
04:35	33.8	33.8	33.8	95	32.5	0	2	22	0.00	29.584 
04:40	33.8	33.8	33.8	96	32.8	1	5	22	0.00	29.589 
04:45	34.0	34.0	34.0	96	33.0	1	3	22	0.00	29.582 
04:50	33.8	33.8	33.8	95	32.5	1	2	0	0.00	29.579 
04:55	33.8	33.8	33.8	96	32.8	1	3	338	0.00	29.583 
05:00	33.8	33.8	33.8	96	32.8	0	3	22	0.00	29.591 
05:05	33.8	33.8	33.8	95	32.5	1	5	112	0.00	29.582 
05:10	33.8	33.8	33.8	95	32.5	1	5	45	0.00	29.589 
05:15	33.8	33.8	33.8	95	32.5	1	4	45	0.00	29.588 
05:20	33.8	33.8	33.8	95	32.5	1	4	112	0.00	29.583 
05:25	33.8	33.8	33.8	95	32.5	3	11	112	0.00	29.564 
05:30	33.8	33.8	33.8	95	32.5	3	7	45	0.00	29.548 
05:35	33.7	33.7	33.7	95	32.4	3	6	90	0.00	29.549 
05:40	33.7	33.7	33.7	95	32.4	3	9	112	0.00	29.553 
05:45	33.5	33.5	33.5	95	32.2	2	9	68	0.00	29.552 
05:50	33.5	33.5	33.5	95	32.2	1	4	90	0.00	29.550 
05:55	33.5	33.5	33.5	95	32.2	1	7	90	0.00	29.565 
06:00	33.5	33.5	33.5	96	32.5	1	4	90	0.00	29.569 
06:05	33.5	33.5	33.5	96	32.5	1	2	68	0.00	29.573 
06:10	33.5	33.5	33.5	96	32.5	1	5	45	0.00	29.571 
06:15	33.5	33.5	33.5	96	32.5	1	3	45	0.00	29.566 
06:20	33.5	33.5	33.5	96	32.5	1	4	90	0.00	29.569 
06:25	33.5	33.5	33.5	96	32.5	2	5	68	0.00	29.572 
06:30	33.5	33.5	33.5	96	32.5	2	5	22	0.00	29.584 
06:35	33.5	33.5	33.5	96	32.5	2	5	112	0.00	29.589 
06:40	33.5	33.5	33.5	96	32.5	3	6	112	0.00	29.583 
06:45	33.5	33.5	33.5	95	32.2	3	6	112	0.00	29.579 
06:50	33.5	33.5	33.5	95	32.2	3	9	112	0.00	29.572 
06:55	33.5	33.5	33.5	95	32.2	3	10	112	0.00	29.587 
07:00	33.5	33.5	33.5	95	32.2	3	8	112	0.00	29.589 
07:05	33.7	33.7	33.7	95	32.4	3	10	112	0.00	29.597 
07:10	33.5	33.5	33.5	95	32.2	3	7	112	0.00	29.574 
07:15	33.5	28.8	33.5	95	32.2	5	10	112	0.00	29.572 
07:20	33.5	33.5	33.5	95	32.2	3	10	112	0.00	29.580 
07:25	33.5	33.5	33.5	95	32.2	2	6	135	0.00	29.585 
07:30	33.7	33.7	33.7	95	32.4	2	6	112	0.00	29.588 
07:35	33.7	33.7	33.7	95	32.4	2	8	90	0.00	29.608 
07:40	33.7	33.7	33.7	95	32.4	1	4	90	0.00	29.613 
07:45	33.7	33.7	33.7	95	32.4	3	7	112	0.00	29.612 
07:50	33.7	30.0	33.7	94	32.2	4	10	112	0.00	29.602 
07:55	33.7	29.1	33.7	95	32.4	5	10	112	0.01	29.587 
08:00	33.5	28.8	33.5	95	32.2	5	12	112	0.00	29.566 
08:05	33.5	27.3	33.5	95	32.2	7	13	112	0.01	29.550 
08:10	33.4	27.2	33.4	95	32.1	7	15	112	0.00	29.537 
08:15	33.4	28.7	33.4	95	32.1	5	9	112	0.00	29.550 
08:20	33.4	28.7	33.4	95	32.1	5	12	90	0.00	29.555 
08:25	33.5	28.0	33.5	95	32.2	6	12	112	0.00	29.552 
08:30	33.4	27.9	33.4	95	32.1	6	14	90	0.00	29.552 
08:35	33.4	27.9	33.4	95	32.1	6	13	112	0.00	29.539 
08:40	33.4	27.9	33.4	95	32.1	6	13	112	0.01	29.528 
08:45	33.4	27.2	33.4	95	32.1	7	13	90	0.00	29.523 
08:50	33.4	26.0	33.4	95	32.1	9	14	90	0.00	29.518 
08:55	33.4	26.6	33.4	95	32.1	8	14	90	0.00	29.528 
09:00	33.5	27.3	33.5	95	32.2	7	13	112	0.00	29.539 
09:05	33.5	28.8	33.5	95	32.2	5	13	112	0.00	29.548 
09:10	33.5	29.8	33.5	95	32.2	4	9	112	0.00	29.551 
09:15	33.5	28.8	33.5	95	32.2	5	12	90	0.00	29.547 
09:20	33.5	29.8	33.5	95	32.2	4	10	112	0.01	29.541 
09:25	33.5	29.8	33.5	95	32.2	4	9	90	0.01	29.537 
09:30	33.5	28.8	33.5	95	32.2	5	10	90	0.00	29.535 
09:35	33.5	28.0	33.5	95	32.2	6	12	112	0.00	29.530 
09:40	33.5	27.3	33.5	95	32.2	7	14	90	0.01	29.535 
09:45	33.5	29.8	33.5	95	32.2	4	15	112	0.00	29.534 
09:50	33.5	29.8	33.5	95	32.2	4	14	112	0.01	29.527 
09:55	33.5	29.8	33.5	95	32.2	4	10	112	0.00	29.538 
10:00	33.5	29.8	33.5	95	32.2	4	9	112	0.01	29.521 
10:05	33.4	27.9	33.4	96	32.4	6	12	112	0.01	29.503 
10:10	33.5	27.3	33.5	96	32.5	7	15	112	0.00	29.500 
10:15	33.5	27.3	33.5	96	32.5	7	14	90	0.00	29.491 
10:20	33.5	28.0	33.5	96	32.5	6	13	90	0.00	29.505 
10:25	33.7	29.1	33.7	96	32.7	5	12	112	0.00	29.510 
10:30	33.7	28.3	33.7	96	32.7	6	13	112	0.00	29.506 
10:35	33.7	29.1	33.7	96	32.7	5	13	112	0.00	29.509 
10:40	33.8	30.2	33.8	96	32.8	4	12	90	0.00	29.518 
10:45	33.7	28.3	33.7	96	32.7	6	14	90	0.01	29.520 
10:50	33.7	28.3	33.7	96	32.7	6	12	112	0.00	29.513 
10:55	33.7	27.5	33.7	95	32.4	7	14	112	0.00	29.498 
11:00	33.7	28.3	33.7	95	32.4	6	13	112	0.01	29.504 
11:05	33.7	28.3	33.7	95	32.4	6	14	112	0.01	29.510 
11:10	33.7	27.5	33.7	95	32.4	7	15	112	0.00	29.504 
11:15	33.8	30.2	33.8	95	32.5	4	7	112	0.01	29.496 
11:20	33.7	28.3	33.7	95	32.4	6	15	112	0.01	29.488 
11:25	33.5	27.3	33.5	95	32.2	7	15	112	0.01	29.483 
11:30	33.4	27.2	33.4	95	32.1	7	13	112	0.00	29.485 
11:35	33.4	27.9	33.4	95	32.1	6	13	112	0.01	29.487 
11:40	33.4	28.7	33.4	95	32.1	5	11	112	0.00	29.479 
11:45	33.2	27.7	33.2	95	31.9	6	16	90	0.02	29.475 
11:50	33.2	26.9	33.2	95	31.9	7	14	112	0.01	29.472 
11:55	33.2	27.7	33.2	95	31.9	6	12	112	0.01	29.463 
12:00	33.2	27.7	33.2	95	31.9	6	12	112	0.01	29.461 
12:05	33.2	26.9	33.2	95	31.9	7	17	112	0.01	29.456 
12:10	33.2	29.5	33.2	95	31.9	4	10	112	0.00	29.457 
12:15	33.2	29.5	33.2	95	31.9	4	10	112	0.01	29.449 
12:20	33.2	28.5	33.2	95	31.9	5	10	90	0.00	29.445 
12:25	33.2	28.5	33.2	95	31.9	5	11	112	0.01	29.439 
12:30	33.2	27.7	33.2	95	31.9	6	14	112	0.00	29.432 
12:35	33.2	26.9	33.2	95	31.9	7	13	112	0.01	29.426 
12:40	33.1	26.8	33.1	95	31.8	7	15	112	0.01	29.414 
12:45	33.1	26.2	33.1	95	31.8	8	16	90	0.01	29.426 
12:50	33.1	26.8	33.1	95	31.8	7	16	112	0.01	29.427 
12:55	33.1	27.5	33.1	95	31.8	6	12	112	0.02	29.410 
13:00	33.1	26.8	33.1	95	31.8	7	18	112	0.01	29.402 
13:05	33.1	26.8	33.1	95	31.8	7	16	90	0.02	29.399 
13:10	33.2	29.5	33.2	95	31.9	4	9	112	0.01	29.394 
13:15	33.2	26.9	33.2	95	31.9	7	19	112	0.00	29.382 
13:20	33.1	26.8	33.1	95	31.8	7	11	112	0.01	29.383 
13:25	33.1	26.8	33.1	95	31.8	7	16	112	0.01	29.391 
13:30	33.1	26.2	33.1	95	31.8	8	15	112	0.02	29.382 
13:35	33.1	26.2	33.1	95	31.8	8	14	112	0.00	29.373 
13:40	33.1	26.2	33.1	95	31.8	8	17	112	0.02	29.362 
13:45	33.1	25.6	33.1	95	31.8	9	16	90	0.00	29.350 
13:50	33.1	25.1	33.1	95	31.8	10	16	90	0.01	29.348 
13:55	33.1	25.6	33.1	95	31.8	9	16	112	0.01	29.333 
14:00	32.9	25.9	32.9	95	31.6	8	15	90	0.00	29.332 
14:05	32.9	27.3	32.9	95	31.6	6	15	112	0.00	29.318 
14:10	32.9	26.6	32.9	95	31.6	7	17	112	0.01	29.318 
14:15	32.9	28.1	32.9	95	31.6	5	12	112	0.01	29.334 
14:20	32.9	29.1	32.9	95	31.6	4	12	112	0.00	29.365 
14:25	33.1	33.1	33.1	95	31.8	3	8	112	0.01	29.380 
14:30	33.1	33.1	33.1	95	31.8	2	5	112	0.00	29.393 
14:35	33.1	33.1	33.1	95	31.8	3	6	90	0.00	29.383 
14:40	32.9	32.9	32.9	95	31.6	3	5	90	0.00	29.380 
14:45	32.9	32.9	32.9	95	31.6	1	5	68	0.00	29.382 
14:50	32.9	32.9	32.9	95	31.6	2	5	112	0.00	29.381 
14:55	32.8	32.8	32.8	95	31.5	2	3	90	0.00	29.383 
15:00	32.7	32.7	32.7	95	31.4	2	6	90	0.00	29.380 
15:05	32.7	32.7	32.7	95	31.4	2	5	90	0.00	29.379 
15:10	32.7	32.7	32.7	95	31.4	3	6	68	0.00	29.364 
15:15	32.5	28.7	32.5	95	31.2	4	9	90	0.00	29.354 
15:20	32.5	32.5	32.5	96	31.5	3	9	90	0.00	29.351 
15:25	32.5	32.5	32.5	96	31.5	3	7	112	0.00	29.363 
15:30	32.5	32.5	32.5	96	31.5	2	4	112	0.00	29.363 
15:35	32.5	28.7	32.5	96	31.5	4	7	90	0.00	29.366 
15:40	32.5	32.5	32.5	96	31.5	2	5	112	0.00	29.369 
15:45	32.7	32.7	32.7	96	31.7	3	6	112	0.00	29.375 
15:50	32.7	28.9	32.7	96	31.7	4	10	112	0.00	29.376 
15:55	32.7	26.3	32.7	96	31.7	7	13	90	0.00	29.371 
16:00	32.7	32.7	32.7	96	31.7	1	7	135	0.00	29.393 
16:05	32.7	32.7	32.7	96	31.7	1	3	248	0.00	29.396 
16:10	32.8	32.8	32.8	96	31.8	1	4	248	0.00	29.411 
16:15	32.8	32.8	32.8	96	31.8	2	7	90	0.00	29.403 
16:20	32.8	32.8	32.8	96	31.8	1	4	225	0.01	29.413 
16:25	32.8	32.8	32.8	96	31.8	1	2	112	0.00	29.416 
16:30	32.8	32.8	32.8	96	31.8	1	3	90	0.00	29.417 
16:35	32.8	32.8	32.8	96	31.8	0	3	90	0.00	29.423 
16:40	32.8	32.8	32.8	96	31.8	0	1	90	0.00	29.426 
16:45	32.8	32.8	32.8	96	31.8	0	1	90	0.00	29.429 
16:50	32.8	32.8	32.8	96	31.8	0	0	---	0.01	29.429 
16:55	32.8	32.8	32.8	96	31.8	0	0	---	0.00	29.432 
17:00	32.8	32.8	32.8	96	31.8	0	1	90	0.00	29.432 
17:05	32.8	32.8	32.8	96	31.8	0	0	---	0.00	29.433 
17:10	32.8	32.8	32.8	96	31.8	0	0	---	0.00	29.439 
17:15	32.8	32.8	32.8	96	31.8	0	2	90	0.00	29.444 
17:20	32.8	32.8	32.8	96	31.8	1	4	90	0.00	29.445 
17:25	32.9	32.9	32.9	96	31.9	0	3	90	0.00	29.445 
17:30	33.1	33.1	33.1	96	32.1	1	3	248	0.00	29.446 
17:35	33.5	33.5	33.5	96	32.5	1	4	248	0.01	29.450 
17:40	33.8	33.8	33.8	97	33.0	2	6	248	0.00	29.447 
17:45	34.0	34.0	34.0	97	33.2	2	6	248	0.00	29.444 
17:50	34.1	34.1	34.1	96	33.1	0	3	248	0.00	29.444 
17:55	34.1	34.1	34.1	96	33.1	1	4	248	0.00	29.450 
18:00	34.0	34.0	34.0	96	33.0	2	9	248	0.00	29.448 
18:05	34.0	34.0	34.0	96	33.0	1	4	248	0.00	29.451 
18:10	34.0	34.0	34.0	96	33.0	1	4	248	0.00	29.453 
18:15	34.0	34.0	34.0	96	33.0	1	2	248	0.01	29.451 
18:20	34.0	34.0	34.0	96	33.0	1	3	248	0.00	29.452 
18:25	34.0	34.0	34.0	96	33.0	0	3	135	0.00	29.452 
18:30	34.0	34.0	34.0	96	33.0	0	2	135	0.00	29.451 
18:35	34.0	34.0	34.0	96	33.0	0	2	135	0.00	29.450 
18:40	34.0	34.0	34.0	96	33.0	1	3	135	0.00	29.449 
18:45	34.0	34.0	34.0	95	32.7	1	4	338	0.00	29.453 
18:50	34.0	34.0	34.0	95	32.7	1	7	270	0.00	29.453 
18:55	34.0	34.0	34.0	95	32.7	1	7	248	0.00	29.454 
19:00	34.0	34.0	34.0	95	32.7	2	6	270	0.01	29.454 
19:05	33.8	33.8	33.8	95	32.5	2	5	248	0.00	29.455 
19:10	33.8	33.8	33.8	94	32.3	1	4	248	0.00	29.457 
19:15	33.8	33.8	33.8	94	32.3	1	4	248	0.00	29.457 
19:20	33.8	33.8	33.8	94	32.3	1	4	248	0.00	29.457 
19:25	33.8	33.8	33.8	94	32.3	2	7	248	0.00	29.458 
19:30	34.0	34.0	34.0	94	32.5	3	10	248	0.00	29.457 
19:35	34.1	34.1	34.1	94	32.6	3	6	248	0.00	29.457 
19:40	34.1	30.5	34.1	93	32.3	4	11	248	0.00	29.460 
19:45	34.0	34.0	34.0	93	32.2	3	12	248	0.01	29.458 
19:50	33.8	33.8	33.8	93	32.0	2	6	248	0.00	29.459 
19:55	33.8	33.8	33.8	93	32.0	3	9	248	0.00	29.460 
20:00	33.8	33.8	33.8	93	32.0	2	6	248	0.00	29.459 
20:05	34.0	34.0	34.0	93	32.2	2	7	248	0.00	29.459 
20:10	34.0	34.0	34.0	93	32.2	3	6	248	0.00	29.465 
20:15	34.1	34.1	34.1	92	32.0	3	9	248	0.00	29.466 
20:20	34.1	30.5	34.1	91	31.8	4	11	248	0.01	29.470 
20:25	34.1	34.1	34.1	91	31.8	2	5	248	0.00	29.472 
20:30	34.1	34.1	34.1	90	31.5	3	11	248	0.00	29.472 
20:35	34.3	30.7	34.3	89	31.4	4	13	270	0.00	29.472 
20:40	34.3	30.7	34.3	88	31.1	4	9	248	0.00	29.472 
20:45	34.3	34.3	34.3	88	31.1	3	9	248	0.00	29.474 
20:50	34.3	34.3	34.3	88	31.1	3	7	248	0.00	29.477 
20:55	34.3	30.7	34.3	87	30.8	4	10	248	0.00	29.482 
21:00	34.3	34.3	34.3	87	30.8	3	10	248	0.00	29.484 
21:05	34.3	34.3	34.3	87	30.8	2	7	248	0.00	29.486 
21:10	34.3	30.7	34.3	87	30.8	4	10	270	0.00	29.487 
21:15	34.1	30.5	34.1	87	30.6	4	11	248	0.00	29.488 
21:20	34.0	34.0	34.0	88	30.8	3	8	248	0.00	29.488 
21:25	34.0	34.0	34.0	88	30.8	3	7	248	0.00	29.490 
21:30	33.8	33.8	33.8	88	30.6	3	6	248	0.00	29.493 
21:35	33.7	30.0	33.7	89	30.8	4	10	248	0.00	29.498 
21:40	33.5	33.5	33.5	89	30.6	3	10	225	0.00	29.501 
21:45	33.1	28.4	33.1	89	30.2	5	11	270	0.00	29.505 
21:50	32.9	29.1	32.9	90	30.3	4	13	248	0.00	29.508 
21:55	32.8	29.0	32.8	89	29.9	4	9	248	0.00	29.509 
22:00	32.8	28.0	32.8	88	29.6	5	17	270	0.01	29.514 
22:05	32.7	28.9	32.7	88	29.5	4	12	248	0.00	29.518 
22:10	32.7	27.9	32.7	88	29.5	5	13	270	0.00	29.517 
22:15	32.5	28.7	32.5	87	29.1	4	13	248	0.00	29.519 
22:20	32.5	28.7	32.5	87	29.1	4	9	248	0.00	29.518 
22:25	32.5	32.5	32.5	87	29.1	3	10	270	0.00	29.517 
22:30	32.4	32.4	32.4	87	29.0	3	9	270	0.00	29.519 
22:35	32.2	28.3	32.2	88	29.1	4	11	248	0.00	29.521 
22:40	32.2	26.5	32.2	88	29.1	6	12	248	0.00	29.518 
22:45	32.1	28.2	32.1	88	29.0	4	10	248	0.00	29.519 
22:50	31.9	28.0	31.9	88	28.8	4	9	248	0.00	29.520 
22:55	31.8	31.8	31.8	89	28.9	3	6	248	0.00	29.522 
23:00	31.6	31.6	31.6	90	29.0	3	6	248	0.00	29.520 
23:05	31.5	31.5	31.5	91	29.2	3	10	248	0.00	29.521 
23:10	31.5	31.5	31.5	91	29.2	2	7	248	0.00	29.522 
23:15	31.5	31.5	31.5	92	29.4	3	10	248	0.00	29.523 
23:20	31.5	31.5	31.5	92	29.4	3	7	248	0.00	29.523 
23:25	31.5	31.5	31.5	92	29.4	3	7	248	0.00	29.524 
23:30	31.5	27.5	31.5	92	29.4	4	12	248	0.00	29.526 
23:35	31.5	31.5	31.5	92	29.4	3	7	248	0.00	29.530 
23:40	31.6	31.6	31.6	92	29.5	3	6	248	0.00	29.531 
23:45	31.6	31.6	31.6	93	29.8	3	6	248	0.00	29.537 
23:50	31.6	31.6	31.6	93	29.8	3	6	248	0.00	29.538 
23:55	31.6	31.6	31.6	93	29.8	2	9	248	0.00	29.540 

CoCoRaHS
IN-AL-39
A2 Web Hosting
Creative Commons License
GoDaddy
Look for:

loaded 2017-10-16 18:34:37 • last modified 2010-11-18 10:43:29
Privacy PolicyDisclaimer
• wx.awcolley.com is powered by PmWiki v.2002016 •
• all content (unless otherwise noted) © 2017 A W Colley